Time;durP1;ratioP1;P1;durP2;ratioP2;P2;SDS_P1;SDS_P2;PMS_P1;PMS_P2;Temp;Humidity;BMP_temperature;BMP_pressure;BME280_temperature;BME280_humidity;BME280_pressure;Samples;Min_cycle;Max_cycle;Signal;HPM_P1;HPM_P2
2022/12/25 00:02:19;;;;;;;8.43;1.88;;;;;;;8.46;100.00;98925.22;4954656;28;20055;-83
2022/12/25 00:04:46;;;;;;;6.25;1.67;;;;;;;8.48;100.00;98919.00;4953820;29;20118;-84
2022/12/25 00:07:13;;;;;;;7.72;2.17;;;;;;;8.39;100.00;98931.66;4953537;29;20414;-83
2022/12/25 00:09:39;;;;;;;8.95;2.00;;;;;;;8.30;100.00;98922.59;4953988;29;20067;-83
2022/12/25 00:12:06;;;;;;;4.30;1.50;;;;;;;8.46;100.00;98939.06;4954636;28;20098;-84
2022/12/25 00:14:33;;;;;;;9.13;1.80;;;;;;;8.41;100.00;98924.59;4952689;29;20114;-83
2022/12/25 00:16:59;;;;;;;5.75;1.73;;;;;;;8.60;100.00;98942.66;4954883;28;20050;-83
2022/12/25 00:19:26;;;;;;;5.18;1.60;;;;;;;8.57;100.00;98935.00;4953796;29;20051;-83
2022/12/25 00:21:53;;;;;;;5.10;1.98;;;;;;;8.45;100.00;98921.78;4954410;28;20051;-83
2022/12/25 00:24:20;;;;;;;9.00;1.88;;;;;;;8.44;100.00;98924.47;4953208;29;20486;-83
2022/12/25 00:26:46;;;;;;;4.15;1.30;;;;;;;8.59;100.00;98925.31;4953360;29;20446;-83
2022/12/25 00:29:13;;;;;;;4.07;1.40;;;;;;;8.65;100.00;98928.44;4954077;28;20144;-84
2022/12/25 00:31:40;;;;;;;4.18;1.38;;;;;;;8.67;100.00;98923.94;4953430;29;20541;-84
2022/12/25 00:34:07;;;;;;;15.95;2.13;;;;;;;8.62;100.00;98922.53;4949739;29;20047;-84
2022/12/25 00:36:33;;;;;;;5.10;1.52;;;;;;;8.44;100.00;98919.25;4944193;29;20055;-83
2022/12/25 00:39:07;;;;;;;2.72;1.30;;;;;;;8.50;100.00;98916.28;4953506;29;20451;-83
2022/12/25 00:44:19;;;;;;;4.97;1.38;;;;;;;8.64;100.00;98931.13;4948947;29;20409;-83
2022/12/25 00:46:46;;;;;;;3.72;1.50;;;;;;;8.42;100.00;98948.03;4953332;29;20062;-84
2022/12/25 00:49:13;;;;;;;7.93;1.50;;;;;;;8.46;100.00;98926.03;4953366;29;20051;-83
2022/12/25 00:51:39;;;;;;;4.30;1.58;;;;;;;8.41;100.00;98917.63;4952777;29;20106;-82
2022/12/25 00:54:07;;;;;;;2.90;1.23;;;;;;;8.51;100.00;98938.81;4953072;29;20058;-84
2022/12/25 00:56:34;;;;;;;2.60;1.38;;;;;;;8.62;100.00;98935.59;4953017;29;20047;-83
2022/12/25 00:59:01;;;;;;;2.83;1.30;;;;;;;8.51;100.00;98925.78;4953259;29;20548;-84
2022/12/25 01:01:27;;;;;;;3.28;1.45;;;;;;;8.50;100.00;98919.72;4953017;29;20498;-83
2022/12/25 01:03:54;;;;;;;3.75;1.52;;;;;;;8.67;100.00;98938.78;4949417;29;20047;-83
2022/12/25 01:06:21;;;;;;;3.25;1.52;;;;;;;8.46;100.00;98926.03;4947813;29;20356;-83
2022/12/25 01:11:33;;;;;;;6.57;1.40;;;;;;;8.54;100.00;98933.44;4953722;29;20102;-83
2022/12/25 01:14:01;;;;;;;3.22;1.30;;;;;;;8.67;100.00;98944.81;4952435;29;20047;-83
2022/12/25 01:16:28;;;;;;;5.97;1.73;;;;;;;8.29;100.00;98910.50;4953650;28;20421;-83
2022/12/25 01:18:55;;;;;;;5.57;1.73;;;;;;;8.47;100.00;98955.59;4952607;29;20047;-83
2022/12/25 01:21:22;;;;;;;3.22;1.40;;;;;;;8.25;100.00;98886.38;4953820;28;20070;-83
2022/12/25 01:23:51;;;;;;;4.85;1.38;;;;;;;8.57;100.00;98948.06;4952610;29;20047;-82
2022/12/25 01:26:20;;;;;;;5.80;1.35;;;;;;;8.40;100.00;98928.16;4953407;29;20067;-83
2022/12/25 01:28:48;;;;;;;4.07;1.50;;;;;;;8.51;100.00;98941.44;4952895;29;20070;-83
2022/12/25 01:31:17;;;;;;;5.15;1.60;;;;;;;8.45;100.00;98939.19;4952425;29;20062;-83
2022/12/25 01:33:45;;;;;;;2.67;1.17;;;;;;;8.57;100.00;98946.31;4964409;28;20055;-83
2022/12/25 01:36:13;;;;;;;5.35;1.40;;;;;;;8.81;100.00;98930.97;4957316;28;20107;-83
2022/12/25 01:38:42;;;;;;;6.93;1.70;;;;;;;8.60;100.00;98920.03;4956550;29;20450;-83
2022/12/25 01:41:10;;;;;;;4.85;1.48;;;;;;;8.47;100.00;98925.13;4956322;29;20051;-83
2022/12/25 01:43:56;;;;;;;5.78;2.10;;;;;;;8.14;100.00;98888.75;4955998;29;20055;-83
2022/12/25 01:46:23;;;;;;;6.47;1.65;;;;;;;8.36;100.00;98917.06;4957637;28;20477;-82
2022/12/25 01:48:52;;;;;;;4.00;1.60;;;;;;;8.30;100.00;98899.13;4956727;29;20055;-83
2022/12/25 01:51:27;;;;;;;5.88;1.80;;;;;;;8.42;100.00;98919.31;4956330;29;20058;-83
2022/12/25 01:53:57;;;;;;;5.22;1.80;;;;;;;8.26;100.00;98901.09;4956205;29;20113;-82
2022/12/25 01:56:26;;;;;;;7.95;2.00;;;;;;;8.16;100.00;98906.00;4956137;29;20051;-82
2022/12/25 01:58:55;;;;;;;5.32;1.88;;;;;;;8.17;100.00;98902.44;4955768;29;20051;-83
2022/12/25 02:01:21;;;;;;;7.07;1.75;;;;;;;8.22;100.00;98915.22;4955223;29;20062;-82
2022/12/25 02:03:48;;;;;;;5.55;1.70;;;;;;;8.33;100.00;98904.19;4955777;29;20390;-83
2022/12/25 02:06:15;;;;;;;5.10;1.90;;;;;;;8.42;100.00;98916.72;4955857;29;20044;-83
2022/12/25 02:08:42;;;;;;;7.43;2.00;;;;;;;8.57;100.00;98915.00;4955858;29;20401;-83
2022/12/25 02:11:55;;;;;;;8.02;2.08;;;;;;;8.33;100.00;98907.63;4955338;29;20074;-82
2022/12/25 02:13:55;;;;;;;6.18;1.90;;;;;;;8.29;100.00;98903.53;4955829;29;20059;-83
2022/12/25 02:16:28;;;;;;;4.68;1.90;;;;;;;8.57;100.00;98921.97;4956452;28;20109;-83
2022/12/25 02:18:59;;;;;;;;;;;;;;;8.46;100.00;98918.22;4956060;29;20160;-83
2022/12/25 02:21:57;;;;;;;6.50;2.05;;;;;;;8.39;100.00;98905.59;4957036;28;20360;-82
2022/12/25 02:24:43;;;;;;;3.83;1.50;;;;;;;8.26;100.00;98895.88;4971550;28;20496;-83
2022/12/25 02:27:12;;;;;;;8.63;2.10;;;;;;;8.10;100.00;98884.66;4955504;29;20055;-83
2022/12/25 02:30:05;;;;;;;7.03;2.10;;;;;;;7.98;100.00;98854.91;4955110;29;20052;-83
2022/12/25 02:32:48;;;;;;;5.57;1.42;;;;;;;7.88;100.00;98861.56;4955002;29;20402;-82
2022/12/25 02:35:26;;;;;;;7.65;2.53;;;;;;;7.97;100.00;98894.94;4956923;28;20474;-84
2022/12/25 02:38:10;;;;;;;3.70;1.38;;;;;;;8.02;100.00;98879.88;4956383;28;20059;-82
2022/12/25 02:40:46;;;;;;;7.43;2.10;;;;;;;8.01;100.00;98906.03;4954875;29;20062;-82
2022/12/25 03:11:29;;;;;;;8.68;2.63;;;;;;;7.51;100.00;98895.72;4956153;29;20074;-82
2022/12/25 03:11:46;;;;;;;5.55;1.95;;;;;;;7.62;100.00;98915.94;4955978;28;20055;-82
2022/12/25 03:17:00;;;;;;;7.50;2.28;;;;;;;7.64;100.00;98903.69;4953078;29;20401;-83
2022/12/25 03:28:05;;;;;;;7.82;2.42;;;;;;;7.79;100.00;98922.81;4955078;28;20066;-83
2022/12/25 03:33:37;;;;;;;6.40;2.25;;;;;;;7.84;100.00;98925.19;4953207;29;20102;-83
2022/12/25 03:36:14;;;;;;;4.47;1.60;;;;;;;7.85;100.00;98922.50;4954117;29;20138;-82
2022/12/25 03:42:33;;;;;;;7.20;2.17;;;;;;;7.82;100.00;98929.66;4954488;28;20066;-82
2022/12/25 04:38:02;;;;;;;7.85;2.42;;;;;;;7.83;100.00;98931.34;4954346;28;20059;-83
2022/12/25 04:40:29;;;;;;;6.68;2.40;;;;;;;7.81;100.00;98931.44;4953258;29;20058;-82
2022/12/25 04:42:55;;;;;;;8.27;2.70;;;;;;;7.77;100.00;98940.31;4952522;29;20066;-82
2022/12/25 04:45:22;;;;;;;6.32;2.30;;;;;;;7.73;100.00;98903.16;4952709;29;20066;-83
2022/12/25 04:47:49;;;;;;;5.97;2.15;;;;;;;7.97;100.00;98921.00;4953523;29;20747;-82
2022/12/25 04:50:16;;;;;;;9.18;2.92;;;;;;;7.59;100.00;98897.88;4953277;29;20115;-82
2022/12/25 04:52:42;;;;;;;9.23;2.42;;;;;;;7.60;100.00;98910.00;4949523;29;20081;-82
2022/12/25 04:55:10;;;;;;;15.43;3.40;;;;;;;7.83;100.00;98915.72;4953683;29;20047;-82
2022/12/25 04:57:38;;;;;;;6.88;2.42;;;;;;;7.59;100.00;98922.16;4954423;28;20051;-82
2022/12/25 05:00:05;;;;;;;10.45;2.70;;;;;;;7.75;100.00;98916.13;4952128;29;20059;-82
2022/12/25 05:02:33;;;;;;;6.28;2.22;;;;;;;7.66;100.00;98933.09;4952815;29;20059;-82
2022/12/25 05:05:00;;;;;;;6.38;2.17;;;;;;;7.66;100.00;98933.09;4952765;29;20086;-82
2022/12/25 05:07:26;;;;;;;8.20;2.53;;;;;;;7.49;100.00;98933.16;4952806;29;20055;-83
2022/12/25 05:09:53;;;;;;;7.47;2.10;;;;;;;7.75;100.00;98943.00;4955018;28;20062;-82
2022/12/25 05:12:20;;;;;;;6.13;2.60;;;;;;;7.70;100.00;98931.16;4956789;29;20110;-82
2022/12/25 05:14:46;;;;;;;10.70;3.00;;;;;;;7.70;100.00;98937.22;4956426;29;20047;-82
2022/12/25 05:17:13;;;;;;;7.38;2.60;;;;;;;7.73;100.00;98947.47;4956239;29;20051;-82
2022/12/25 05:19:41;;;;;;;11.00;2.47;;;;;;;7.45;100.00;98939.47;4958263;28;20080;-82
2022/12/25 05:22:08;;;;;;;6.78;2.20;;;;;;;7.59;100.00;98947.38;4956123;29;20481;-82
2022/12/25 05:24:35;;;;;;;8.73;2.75;;;;;;;7.53;100.00;98932.09;4957723;28;20636;-82
2022/12/25 05:27:01;;;;;;;7.07;2.83;;;;;;;7.43;100.00;98931.72;4957991;28;20063;-82
2022/12/25 05:29:28;;;;;;;6.55;2.40;;;;;;;7.57;100.00;98929.22;4956520;29;20051;-81
2022/12/25 05:31:55;;;;;;;8.95;2.65;;;;;;;7.34;100.00;98924.41;4956921;29;20062;-82
2022/12/25 05:34:22;;;;;;;7.82;2.30;;;;;;;7.53;100.00;98901.66;4957968;28;20489;-82
2022/12/25 05:36:49;;;;;;;9.45;2.60;;;;;;;7.54;100.00;98931.16;4957641;28;20114;-82
2022/12/25 05:39:16;;;;;;;9.05;2.50;;;;;;;7.63;100.00;98911.56;4957448;28;20055;-82
2022/12/25 05:41:42;;;;;;;7.07;2.20;;;;;;;7.74;100.00;98899.66;4958019;28;20102;-82
2022/12/25 05:44:09;;;;;;;7.40;2.65;;;;;;;7.72;100.00;98908.47;4957771;28;20055;-82
2022/12/25 05:46:36;;;;;;;7.45;2.17;;;;;;;7.73;100.00;98920.56;4971960;28;20090;-82
2022/12/25 05:49:04;;;;;;;8.75;2.97;;;;;;;7.63;100.00;98933.25;4957943;28;20086;-82
2022/12/25 05:51:31;;;;;;;11.05;2.70;;;;;;;7.49;100.00;98915.78;4956635;29;20055;-82
2022/12/25 05:53:58;;;;;;;10.80;2.65;;;;;;;7.73;100.00;98937.03;4956212;29;20393;-82
2022/12/25 05:56:25;;;;;;;5.82;2.33;;;;;;;7.69;100.00;98930.31;4955881;29;20051;-82
2022/12/25 05:58:52;;;;;;;8.57;2.40;;;;;;;7.76;100.00;98936.03;4957096;28;20051;-82
2022/12/25 06:01:22;;;;;;;8.02;2.38;;;;;;;7.77;100.00;98953.34;4954678;29;20054;-82
2022/12/25 06:03:49;;;;;;;7.35;2.10;;;;;;;7.80;100.00;98943.59;4956235;29;20048;-82
2022/12/25 06:06:16;;;;;;;6.43;2.13;;;;;;;7.88;100.00;98950.16;4957202;28;20486;-82
2022/12/25 06:08:43;;;;;;;7.60;2.45;;;;;;;7.72;100.00;98958.81;4956063;29;20047;-83
2022/12/25 06:11:12;;;;;;;9.43;2.72;;;;;;;7.59;100.00;98926.53;4956221;29;20054;-83
2022/12/25 06:13:40;;;;;;;8.05;2.90;;;;;;;7.88;100.00;98945.81;4955330;29;20050;-83
2022/12/25 06:16:09;;;;;;;7.22;2.20;;;;;;;7.86;100.00;98962.41;4955224;29;20047;-82
2022/12/25 06:18:41;;;;;;;5.65;2.13;;;;;;;7.74;100.00;98938.72;4943852;29;20486;-82
2022/12/25 06:21:09;;;;;;;7.82;2.42;;;;;;;7.83;100.00;98947.81;4955142;28;20063;-82
2022/12/25 06:23:37;;;;;;;7.03;2.40;;;;;;;7.94;100.00;98949.81;4955547;29;20054;-82
2022/12/25 06:26:06;;;;;;;3.67;1.60;;;;;;;8.13;100.00;98963.50;4955576;29;20397;-82
2022/12/25 06:28:33;;;;;;;10.32;2.55;;;;;;;8.03;100.00;98935.44;4955638;29;20505;-82
2022/12/25 06:31:15;;;;;;;5.28;1.70;;;;;;;8.06;100.00;98933.50;4955099;29;20051;-82
2022/12/25 06:33:42;;;;;;;7.10;1.75;;;;;;;8.08;100.00;98943.84;4955558;29;20074;-82
2022/12/25 06:36:17;;;;;;;11.27;2.42;;;;;;;8.09;100.00;98951.59;4955308;29;20552;-82
2022/12/25 06:38:44;;;;;;;12.85;2.58;;;;;;;8.15;100.00;98956.44;4965602;28;20059;-82
2022/12/25 06:41:16;;;;;;;11.32;2.65;;;;;;;8.12;100.00;98947.97;4956069;28;20477;-82
2022/12/25 06:43:50;;;;;;;9.10;2.50;;;;;;;8.12;100.00;98932.31;4954375;29;20078;-82
2022/12/25 06:46:17;;;;;;;13.88;3.20;;;;;;;8.08;100.00;98930.81;4956317;28;20491;-82
2022/12/25 06:48:48;;;;;;;9.63;2.55;;;;;;;7.94;100.00;98913.34;4955379;29;20051;-82
2022/12/25 06:51:16;;;;;;;8.85;2.55;;;;;;;8.15;100.00;98943.41;4955115;29;20093;-82
2022/12/25 06:53:43;;;;;;;9.38;2.50;;;;;;;8.14;100.00;98923.50;4955287;29;20047;-82
2022/12/25 06:56:14;;;;;;;7.90;2.20;;;;;;;8.19;100.00;98933.66;4955170;29;20051;-82
2022/12/25 06:58:43;;;;;;;10.57;2.15;;;;;;;8.08;100.00;98918.63;4956588;28;20695;-82
2022/12/25 07:01:15;;;;;;;8.48;2.42;;;;;;;8.13;100.00;98928.78;4954976;29;20051;-82
2022/12/25 07:03:44;;;;;;;8.68;2.67;;;;;;;8.17;100.00;98936.34;4955057;29;20051;-82
2022/12/25 07:06:11;;;;;;;7.05;1.73;;;;;;;8.14;100.00;98922.63;4954916;29;20406;-82
2022/12/25 07:08:38;;;;;;;12.85;2.70;;;;;;;8.14;100.00;98923.50;4954758;29;20047;-82
2022/12/25 07:11:05;;;;;;;10.18;3.17;;;;;;;7.94;100.00;98922.00;4955105;29;20054;-82
2022/12/25 07:13:32;;;;;;;10.02;2.35;;;;;;;8.16;100.00;98887.75;4954842;29;20245;-82
2022/12/25 07:16:01;;;;;;;15.23;2.90;;;;;;;8.37;100.00;98923.94;4953647;29;20114;-82
2022/12/25 07:18:29;;;;;;;9.25;2.20;;;;;;;8.40;100.00;98920.31;4954366;29;20102;-82
2022/12/25 07:20:58;;;;;;;12.52;2.85;;;;;;;8.44;100.00;98932.28;4954747;29;20374;-83
2022/12/25 07:23:25;;;;;;;12.57;2.90;;;;;;;8.42;100.00;98932.38;4955240;28;20047;-82
2022/12/25 07:26:02;;;;;;;11.15;2.40;;;;;;;8.57;100.00;98932.41;4941031;29;20488;-82
2022/12/25 07:28:30;;;;;;;11.93;2.75;;;;;;;8.32;100.00;98924.22;4954915;29;20062;-81
2022/12/25 07:31:05;;;;;;;12.20;2.83;;;;;;;8.37;100.00;98929.16;4944233;29;20047;-81
2022/12/25 07:33:32;;;;;;;12.88;3.13;;;;;;;8.52;100.00;98935.31;4957883;28;20082;-81
2022/12/25 07:35:59;;;;;;;14.55;2.38;;;;;;;8.36;100.00;98936.16;4957402;29;20051;-82
2022/12/25 07:38:26;;;;;;;10.20;2.25;;;;;;;8.21;100.00;98900.50;4958355;28;20055;-81
2022/12/25 07:40:53;;;;;;;9.13;2.00;;;;;;;8.30;100.00;98906.97;4957617;29;20047;-81
2022/12/25 07:43:20;;;;;;;8.57;2.17;;;;;;;8.55;100.00;98933.34;4944061;29;20128;-81
2022/12/25 07:45:47;;;;;;;9.77;2.08;;;;;;;8.35;100.00;98907.53;4958703;28;20537;-82
2022/12/25 07:48:14;;;;;;;8.40;2.38;;;;;;;8.10;100.00;98875.06;4957956;29;20050;-82
2022/12/25 07:50:42;;;;;;;13.13;2.65;;;;;;;8.40;100.00;98915.13;4958708;28;20062;-82
2022/12/25 07:53:09;;;;;;;10.88;2.10;;;;;;;8.00;100.00;98876.50;4958719;28;20063;-81
2022/12/25 07:55:36;;;;;;;12.30;2.17;;;;;;;8.37;100.00;98895.25;4957959;29;20058;-82
2022/12/25 07:58:02;;;;;;;12.75;2.33;;;;;;;8.46;100.00;98897.34;4959179;28;20531;-82
2022/12/25 08:00:32;;;;;;;12.35;2.20;;;;;;;8.45;100.00;98942.63;4959118;28;20051;-81
2022/12/25 08:03:00;;;;;;;14.77;3.08;;;;;;;8.07;100.00;98892.63;4957622;29;20260;-81
2022/12/25 08:05:26;;;;;;;12.40;2.63;;;;;;;8.20;100.00;98914.50;4943615;29;20498;-81
2022/12/25 08:07:54;;;;;;;9.85;2.28;;;;;;;8.54;100.00;98947.31;4952953;29;20058;-82
2022/12/25 08:10:23;;;;;;;12.88;2.50;;;;;;;8.39;100.00;98921.25;4958678;29;20066;-81
2022/12/25 08:12:50;;;;;;;8.70;2.20;;;;;;;8.27;100.00;98894.94;4949183;29;20062;-82
2022/12/25 08:15:17;;;;;;;13.35;3.65;;;;;;;8.54;100.00;98936.03;4957776;28;20066;-82
2022/12/25 08:17:44;;;;;;;14.65;3.65;;;;;;;8.68;100.00;98943.91;4957272;29;20126;-82
2022/12/25 08:20:11;;;;;;;14.18;3.22;;;;;;;8.48;100.00;98942.47;4957797;29;20051;-81
2022/12/25 08:22:38;;;;;;;12.18;3.65;;;;;;;8.46;100.00;98935.63;4957871;29;20061;-81
2022/12/25 08:25:05;;;;;;;9.25;2.75;;;;;;;8.66;100.00;98951.00;4957482;29;20080;-81
2022/12/25 08:27:32;;;;;;;11.55;3.00;;;;;;;8.48;100.00;98924.22;4958083;29;20047;-82
2022/12/25 08:29:59;;;;;;;16.65;2.70;;;;;;;8.33;100.00;98910.22;4959021;29;20055;-82
2022/12/25 08:32:26;;;;;;;9.40;2.10;;;;;;;8.51;100.00;98941.44;4959779;28;20058;-82
2022/12/25 08:34:53;;;;;;;15.15;3.03;;;;;;;8.42;100.00;98954.97;4959260;29;20054;-82
2022/12/25 08:37:19;;;;;;;11.77;2.42;;;;;;;8.45;100.00;98924.38;4959546;28;20043;-81
2022/12/25 08:39:46;;;;;;;6.65;1.83;;;;;;;8.14;100.00;98887.00;4960034;28;20047;-82
2022/12/25 08:42:14;;;;;;;12.23;2.50;;;;;;;8.32;100.00;98931.19;4958757;29;20051;-82
2022/12/25 08:44:40;;;;;;;9.52;1.98;;;;;;;8.44;100.00;98916.63;4959964;28;20051;-82
2022/12/25 08:47:07;;;;;;;12.75;2.38;;;;;;;8.18;100.00;98898.09;4961481;28;20051;-82
2022/12/25 08:49:35;;;;;;;10.48;2.33;;;;;;;8.45;100.00;98934.81;4959897;29;20104;-81
2022/12/25 08:52:02;;;;;;;12.40;2.65;;;;;;;8.52;100.00;98928.31;4961555;28;20134;-82
2022/12/25 08:54:31;;;;;;;15.68;2.90;;;;;;;8.47;100.00;98934.72;4960976;28;20047;-82
2022/12/25 08:56:58;;;;;;;16.73;3.97;;;;;;;8.42;100.00;98931.50;4947936;29;20047;-82
2022/12/25 08:59:28;;;;;;;17.08;3.67;;;;;;;8.23;100.00;98942.97;4960847;29;20055;-82
2022/12/25 09:01:55;;;;;;;12.88;2.90;;;;;;;8.07;100.00;98900.44;4960441;29;20469;-82
2022/12/25 09:04:22;;;;;;;13.35;4.18;;;;;;;8.29;100.00;98911.34;4960740;29;20122;-82
2022/12/25 09:06:49;;;;;;;11.43;3.10;;;;;;;8.39;100.00;98918.63;4961117;28;20107;-82
2022/12/25 09:09:16;;;;;;;9.65;2.70;;;;;;;8.22;100.00;98909.19;4962637;29;20051;-82
2022/12/25 09:11:43;;;;;;;6.80;1.80;;;;;;;8.45;100.00;98936.59;4962252;28;20062;-82
2022/12/25 09:14:12;;;;;;;8.50;3.03;;;;;;;8.08;100.00;98918.63;4960612;29;20062;-82
2022/12/25 09:16:39;;;;;;;11.10;2.15;;;;;;;8.29;100.00;98940.03;4956563;29;20126;-81
2022/12/25 09:19:06;;;;;;;8.88;2.40;;;;;;;8.43;100.00;98964.50;4962209;29;20590;-82
2022/12/25 09:21:32;;;;;;;9.10;2.45;;;;;;;8.18;100.00;98932.00;4960949;29;20052;-82
2022/12/25 09:23:59;;;;;;;12.38;3.17;;;;;;;8.40;100.00;98957.66;4961602;29;20055;-82
2022/12/25 09:26:26;;;;;;;14.00;2.00;;;;;;;8.54;100.00;98968.19;4962904;28;20058;-82
2022/12/25 09:28:53;;;;;;;8.45;2.20;;;;;;;8.42;100.00;98952.38;4962331;29;20062;-82
2022/12/25 09:31:21;;;;;;;9.55;2.28;;;;;;;8.77;100.00;99006.94;4961908;29;20059;-82
2022/12/25 09:33:50;;;;;;;7.82;2.10;;;;;;;8.74;100.00;99006.16;4962378;29;20448;-82
2022/12/25 09:36:17;;;;;;;11.38;2.80;;;;;;;8.62;100.00;98985.16;4961575;29;20074;-82
2022/12/25 09:38:43;;;;;;;10.02;2.25;;;;;;;8.51;100.00;98978.78;4959876;29;20107;-83
2022/12/25 09:41:16;;;;;;;8.65;2.00;;;;;;;8.84;100.00;99027.38;4961016;28;20051;-82
2022/12/25 09:44:11;;;;;;;10.38;2.38;;;;;;;8.58;100.00;99002.75;4958882;29;20051;-82
2022/12/25 09:46:43;;;;;;;8.25;2.30;;;;;;;8.45;100.00;98968.72;4956545;28;20051;-83
2022/12/25 09:49:22;;;;;;;14.68;3.10;;;;;;;8.56;100.00;99012.44;4961337;28;20074;-83
2022/12/25 09:51:56;;;;;;;14.45;3.42;;;;;;;8.30;100.00;98980.81;4947784;29;20051;-82
2022/12/25 09:54:38;;;;;;;10.90;2.97;;;;;;;8.32;100.00;98983.34;4960762;28;20057;-83
2022/12/25 09:57:10;;;;;;;11.55;3.80;;;;;;;8.37;100.00;98996.94;4963722;29;20062;-82
2022/12/25 09:59:38;;;;;;;10.10;3.53;;;;;;;8.72;100.00;99023.69;4964386;29;20047;-83
2022/12/25 10:02:33;;;;;;;9.85;3.60;;;;;;;8.69;100.00;99021.28;4965279;28;20055;-83
2022/12/25 10:05:03;;;;;;;8.77;2.85;;;;;;;8.69;100.00;99029.09;4964213;29;20134;-83
2022/12/25 10:07:53;;;;;;;8.65;2.30;;;;;;;8.48;100.00;99010.28;4956138;29;20055;-83
2022/12/25 10:10:37;;;;;;;13.27;3.33;;;;;;;8.23;100.00;98994.28;4962005;29;20051;-83
2022/12/25 10:13:35;;;;;;;14.00;2.80;;;;;;;8.61;100.00;99040.91;4963983;29;20059;-84
2022/12/25 10:16:27;;;;;;;17.58;3.95;;;;;;;8.31;100.00;99011.19;4963963;29;20054;-83
2022/12/25 10:19:23;;;;;;;11.75;3.22;;;;;;;8.73;100.00;99033.19;4966144;28;20047;-83
2022/12/25 10:22:00;;;;;;;17.27;5.55;;;;;;;8.80;100.00;99041.53;4963148;29;20688;-83
2022/12/25 10:24:39;;;;;;;14.93;4.00;;;;;;;8.80;100.00;99040.66;4963272;29;20061;-82
2022/12/25 10:27:16;;;;;;;12.35;3.72;;;;;;;8.69;100.00;99010.84;4964484;28;20047;-82
2022/12/25 10:29:46;;;;;;;11.38;4.65;;;;;;;8.85;100.00;99036.03;4963977;28;20504;-82
2022/12/25 10:32:12;;;;;;;11.52;3.55;;;;;;;8.64;100.00;99025.03;4962644;29;20058;-83
2022/12/25 10:34:41;;;;;;;12.13;3.33;;;;;;;8.71;100.00;99021.16;4963821;28;20067;-82
2022/12/25 10:37:11;;;;;;;13.98;4.03;;;;;;;8.50;100.00;98995.38;4962982;29;20047;-82
2022/12/25 10:39:38;;;;;;;11.23;3.38;;;;;;;8.74;100.00;99020.97;4963490;28;20050;-82
2022/12/25 10:42:40;;;;;;;15.07;3.15;;;;;;;8.50;100.00;98984.94;4955221;29;20055;-82
2022/12/25 10:45:08;;;;;;;8.35;2.28;;;;;;;8.60;100.00;99013.94;4963907;29;20062;-82
2022/12/25 10:47:39;;;;;;;9.95;2.85;;;;;;;8.60;100.00;99029.59;4964029;28;20051;-82
2022/12/25 10:50:22;;;;;;;12.38;2.53;;;;;;;8.87;100.00;99039.38;4963969;29;20098;-82
2022/12/25 10:53:15;;;;;;;13.80;4.80;;;;;;;8.74;100.00;99034.03;4963778;29;20051;-82
2022/12/25 10:55:52;;;;;;;7.65;2.63;;;;;;;8.60;100.00;99011.34;4962419;29;20063;-83
2022/12/25 10:58:19;;;;;;;13.27;3.17;;;;;;;8.38;100.00;98980.38;4963909;28;20047;-82
2022/12/25 11:00:58;;;;;;;12.55;3.35;;;;;;;8.79;100.00;99020.72;4963161;29;20058;-82
2022/12/25 11:03:38;;;;;;;11.43;2.70;;;;;;;9.01;100.00;99044.66;4960973;29;20043;-83
2022/12/25 11:06:22;;;;;;;13.55;3.47;;;;;;;8.64;100.00;98986.78;4963454;28;20054;-83
2022/12/25 11:08:53;;;;;;;11.90;3.78;;;;;;;9.08;100.00;99051.22;4961967;29;20489;-82
2022/12/25 11:11:21;;;;;;;9.18;3.40;;;;;;;8.73;100.00;99014.09;4963297;28;20051;-83
2022/12/25 11:13:51;;;;;;;10.10;3.17;;;;;;;9.08;100.00;99074.72;4963410;28;20047;-82
2022/12/25 11:16:34;;;;;;;12.30;3.15;;;;;;;8.98;100.00;99050.06;4964050;28;20509;-82
2022/12/25 11:19:01;;;;;;;13.07;3.75;;;;;;;9.09;100.00;99078.16;4961307;29;20086;-83
2022/12/25 11:21:35;;;;;;;11.52;2.80;;;;;;;9.32;100.00;99074.19;4960990;29;20059;-82
2022/12/25 11:24:04;;;;;;;14.63;4.10;;;;;;;9.41;100.00;99091.09;4961289;28;20047;-82
2022/12/25 11:26:56;;;;;;;13.25;5.60;;;;;;;9.53;100.00;99097.38;4960763;29;20051;-82
2022/12/25 11:29:28;;;;;;;19.42;7.57;;;;;;;9.27;100.00;99068.41;4956114;29;20129;-83
2022/12/25 11:31:58;;;;;;;17.40;6.70;;;;;;;9.50;100.00;99106.22;4962330;28;20062;-82
2022/12/25 11:34:34;;;;;;;15.32;3.95;;;;;;;9.08;100.00;99063.41;4960953;29;20058;-82
2022/12/25 11:37:02;;;;;;;14.25;4.72;;;;;;;9.16;100.00;99070.81;4960894;29;20067;-83
2022/12/25 11:39:35;;;;;;;15.40;6.45;;;;;;;9.35;100.00;99102.75;4957095;29;20502;-82
2022/12/25 11:42:25;;;;;;;13.45;4.10;;;;;;;9.17;100.00;99083.78;4962020;28;20043;-82
2022/12/25 11:44:59;;;;;;;11.27;4.68;;;;;;;9.45;100.00;99101.25;4962300;28;20047;-83
2022/12/25 11:47:47;;;;;;;29.77;18.23;;;;;;;9.42;100.00;99108.44;4961127;29;20047;-83
2022/12/25 11:50:33;;;;;;;20.75;11.30;;;;;;;8.97;100.00;99040.53;4949282;29;20059;-82
2022/12/25 11:53:05;;;;;;;15.85;7.35;;;;;;;9.31;100.00;99109.94;4961367;29;20051;-82
2022/12/25 11:55:48;;;;;;;12.70;5.78;;;;;;;9.41;100.00;99110.22;4963150;29;20066;-83
2022/12/25 11:58:25;;;;;;;10.65;3.65;;;;;;;9.02;100.00;99069.81;4949381;28;20055;-82
2022/12/25 12:00:56;;;;;;;8.68;3.45;;;;;;;9.32;100.00;99100.31;4961555;29;20047;-82
2022/12/25 12:03:36;;;;;;;12.15;3.25;;;;;;;9.13;100.00;99074.44;4960808;29;20047;-83
2022/12/25 12:06:32;;;;;;;8.52;2.67;;;;;;;9.47;100.00;99120.31;4962281;28;20051;-82
2022/12/25 12:09:23;;;;;;;7.80;2.28;;;;;;;9.31;100.00;99101.22;4924290;29;20394;-82
2022/12/25 12:12:09;;;;;;;7.30;2.08;;;;;;;9.50;100.00;99108.84;4963228;28;20066;-82
2022/12/25 12:14:48;;;;;;;7.88;1.90;;;;;;;9.50;100.00;99119.28;4975682;28;20409;-83
2022/12/25 12:17:17;;;;;;;10.60;2.50;;;;;;;9.62;100.00;99117.72;4960791;28;20051;-83
2022/12/25 12:19:44;;;;;;;7.05;2.53;;;;;;;9.60;100.00;99117.00;4959169;28;20055;-82
2022/12/25 12:22:26;;;;;;;8.50;2.40;;;;;;;9.36;100.00;99070.47;4960128;29;20185;-83
2022/12/25 12:24:58;;;;;;;9.90;2.37;;;;;;;9.45;100.00;99095.22;4960491;28;20055;-83
2022/12/25 12:27:39;;;;;;;10.65;3.15;;;;;;;9.50;100.00;99125.34;4959390;28;20050;-82
2022/12/25 12:30:25;;;;;;;8.18;2.30;;;;;;;9.50;100.00;99127.13;4959731;29;20051;-83
2022/12/25 12:32:57;;;;;;;8.75;2.53;;;;;;;9.46;100.00;99086.44;4949456;29;20055;-82
2022/12/25 12:35:30;;;;;;;9.80;3.45;;;;;;;9.78;100.00;99108.03;4959699;29;20055;-83
2022/12/25 12:38:05;;;;;;;11.48;4.57;;;;;;;9.80;100.00;99131.47;4958460;29;20122;-82
2022/12/25 12:40:43;;;;;;;5.43;1.83;;;;;;;9.75;100.00;99096.94;4959071;29;20055;-82
2022/12/25 12:43:27;;;;;;;5.25;1.90;;;;;;;9.99;100.00;99118.13;4960224;28;20047;-83
2022/12/25 12:45:56;;;;;;;10.18;3.42;;;;;;;9.93;100.00;99110.66;4961016;28;20508;-82
2022/12/25 12:48:25;;;;;;;12.35;3.58;;;;;;;9.65;100.00;99068.75;4961123;28;20163;-83
2022/12/25 12:51:04;;;;;;;8.70;3.20;;;;;;;9.96;100.00;99118.31;4960911;29;20059;-83
2022/12/25 12:53:31;;;;;;;8.13;2.70;;;;;;;9.83;100.00;99089.47;4960876;28;20062;-84
2022/12/25 12:56:08;;;;;;;7.75;2.17;;;;;;;9.90;100.00;99109.06;4961900;28;20070;-83
2022/12/25 12:58:39;;;;;;;6.50;2.13;;;;;;;9.83;100.00;99119.06;4965300;29;20054;-83
2022/12/25 13:01:25;;;;;;;7.93;2.28;;;;;;;10.02;100.00;99121.41;4961120;29;20180;-82
2022/12/25 13:04:05;;;;;;;7.00;2.00;;;;;;;10.06;100.00;99124.66;4961436;28;20059;-84
2022/12/25 13:06:41;;;;;;;3.53;1.50;;;;;;;10.10;100.00;99120.94;4959588;29;20069;-84
2022/12/25 13:09:31;;;;;;;3.53;1.33;;;;;;;10.15;100.00;99118.03;4956059;28;20052;-84
2022/12/25 13:11:58;;;;;;;3.53;1.38;;;;;;;9.86;100.00;99081.41;4959274;29;20394;-84
2022/12/25 13:14:25;;;;;;;4.07;1.65;;;;;;;10.06;100.00;99109.81;4960148;29;20052;-85
2022/12/25 13:16:53;;;;;;;5.30;1.90;;;;;;;10.03;100.00;99098.69;4960322;28;20066;-85
2022/12/25 13:19:23;;;;;;;4.15;1.50;;;;;;;10.05;100.00;99113.34;4959936;29;20398;-84
2022/12/25 13:21:55;;;;;;;6.75;1.95;;;;;;;9.98;100.00;99100.75;4960597;28;20051;-85
2022/12/25 13:24:29;;;;;;;8.80;2.60;;;;;;;9.91;100.00;99092.44;4960472;28;20055;-84
2022/12/25 13:26:56;;;;;;;4.57;1.55;;;;;;;9.79;100.00;99082.72;4961602;28;20058;-84
2022/12/25 13:29:34;;;;;;;4.88;1.50;;;;;;;9.94;100.00;99107.94;4961737;28;20058;-85
2022/12/25 13:32:03;;;;;;;4.18;1.63;;;;;;;9.47;100.00;99078.53;4963678;29;20057;-84